Карточка аэропорта ULWC

Внимание!
Информация на этой странице в стадии наполнения.
Если вы не увидели какой-то информации, или заметили неточность - пожалуйста сообщите нам!
Спасибо!
Команда RU-STAFF
Название аэропортаЧереповец
Название аэропорта (англ.)Cherepovets
Превышение377 ft. (114.9 m.)
Координаты59°16.566', 38°1.1340000000001'
Высота перехода4000ft
Эшелон переходаQNH>=1013mm:FL50; QNH<1013=>977:FL60; QNH<977:FL70
Коды ответчика
Зона ОрВДСанкт-Петербург РПИ (ULLL)
Данные METARULWC 160930Z 21002MPS 9999 FEW033 25/13 Q1018 R21/010060 NOSIG RMK QFE753/1004
Проноз погоды (TAF)ULWC 160800Z 1609/1618 34003G08MPS 9999 BKN017
NOTAMshow/hide NOTAM
AWOS   TABLE

Информация о ВПП


Диспетчерские позиции


Сценарии

Сценарий
Нет результатов.

Схемы

None

Спутниковое изображение